sensor_id;sensor_type;location;lat;lon;timestamp;temperature;humidity
67868;SHT31;54672;46.096;14.470;2024-01-30T00:02:08;-3.95;99.99
67868;SHT31;54672;46.096;14.470;2024-01-30T00:04:33;-3.95;99.99
67868;SHT31;54672;46.096;14.470;2024-01-30T00:06:59;-3.97;99.99
67868;SHT31;54672;46.096;14.470;2024-01-30T00:09:24;-3.98;99.99
67868;SHT31;54672;46.096;14.470;2024-01-30T00:11:50;-4.02;99.99
67868;SHT31;54672;46.096;14.470;2024-01-30T00:14:16;-4.04;99.99
67868;SHT31;54672;46.096;14.470;2024-01-30T00:16:41;-4.02;99.99
67868;SHT31;54672;46.096;14.470;2024-01-30T00:19:07;-4.01;99.99
67868;SHT31;54672;46.096;14.470;2024-01-30T00:21:33;-4.01;99.99
67868;SHT31;54672;46.096;14.470;2024-01-30T00:23:59;-3.83;99.99
67868;SHT31;54672;46.096;14.470;2024-01-30T00:26:24;-3.83;99.99
67868;SHT31;54672;46.096;14.470;2024-01-30T00:28:50;-3.88;99.99
67868;SHT31;54672;46.096;14.470;2024-01-30T00:31:15;-3.95;99.99
67868;SHT31;54672;46.096;14.470;2024-01-30T00:33:41;-4.01;99.99
67868;SHT31;54672;46.096;14.470;2024-01-30T00:36:07;-3.97;99.99
67868;SHT31;54672;46.096;14.470;2024-01-30T00:38:33;-4.01;99.99
67868;SHT31;54672;46.096;14.470;2024-01-30T00:40:59;-4.04;99.99
67868;SHT31;54672;46.096;14.470;2024-01-30T00:43:24;-4.01;99.99
67868;SHT31;54672;46.096;14.470;2024-01-30T00:45:52;-3.95;99.99
67868;SHT31;54672;46.096;14.470;2024-01-30T00:48:18;-3.97;99.99
67868;SHT31;54672;46.096;14.470;2024-01-30T00:50:44;-3.97;99.99
67868;SHT31;54672;46.096;14.470;2024-01-30T00:53:09;-3.97;99.99
67868;SHT31;54672;46.096;14.470;2024-01-30T00:55:35;-3.94;99.99
67868;SHT31;54672;46.096;14.470;2024-01-30T00:58:00;-3.99;99.99
67868;SHT31;54672;46.096;14.470;2024-01-30T01:00:26;-4.11;99.99
67868;SHT31;54672;46.096;14.470;2024-01-30T01:02:58;-4.21;99.99
67868;SHT31;54672;46.096;14.470;2024-01-30T01:05:51;-4.33;99.99
67868;SHT31;54672;46.096;14.470;2024-01-30T01:08:53;-4.41;99.99
67868;SHT31;54672;46.096;14.470;2024-01-30T01:14:41;-4.39;99.99
67868;SHT31;54672;46.096;14.470;2024-01-30T01:17:07;-4.45;99.99
67868;SHT31;54672;46.096;14.470;2024-01-30T01:19:32;-4.46;99.99
67868;SHT31;54672;46.096;14.470;2024-01-30T01:21:58;-4.41;99.99
67868;SHT31;54672;46.096;14.470;2024-01-30T01:24:23;-4.41;99.99
67868;SHT31;54672;46.096;14.470;2024-01-30T01:26:49;-4.45;99.99
67868;SHT31;54672;46.096;14.470;2024-01-30T01:29:15;-4.49;99.99
67868;SHT31;54672;46.096;14.470;2024-01-30T01:31:41;-4.49;99.99
67868;SHT31;54672;46.096;14.470;2024-01-30T01:34:13;-4.41;99.99
67868;SHT31;54672;46.096;14.470;2024-01-30T01:36:39;-4.29;99.99
67868;SHT31;54672;46.096;14.470;2024-01-30T01:39:05;-4.33;99.99
67868;SHT31;54672;46.096;14.470;2024-01-30T01:41:31;-4.32;99.99
67868;SHT31;54672;46.096;14.470;2024-01-30T01:43:58;-4.30;99.99
67868;SHT31;54672;46.096;14.470;2024-01-30T01:46:26;-4.41;99.99
67868;SHT31;54672;46.096;14.470;2024-01-30T01:48:52;-4.43;99.99
67868;SHT31;54672;46.096;14.470;2024-01-30T01:51:19;-4.56;99.99
67868;SHT31;54672;46.096;14.470;2024-01-30T01:53:45;-4.63;99.99
67868;SHT31;54672;46.096;14.470;2024-01-30T01:56:10;-4.60;99.99
67868;SHT31;54672;46.096;14.470;2024-01-30T01:58:36;-4.57;99.99
67868;SHT31;54672;46.096;14.470;2024-01-30T02:01:03;-4.66;99.99
67868;SHT31;54672;46.096;14.470;2024-01-30T02:03:30;-4.72;99.99
67868;SHT31;54672;46.096;14.470;2024-01-30T02:05:56;-4.70;99.99
67868;SHT31;54672;46.096;14.470;2024-01-30T02:08:23;-4.60;99.99
67868;SHT31;54672;46.096;14.470;2024-01-30T02:10:50;-4.66;99.99
67868;SHT31;54672;46.096;14.470;2024-01-30T02:13:15;-4.72;99.99
67868;SHT31;54672;46.096;14.470;2024-01-30T02:15:40;-4.70;99.99
67868;SHT31;54672;46.096;14.470;2024-01-30T02:18:06;-4.72;99.99
67868;SHT31;54672;46.096;14.470;2024-01-30T02:20:35;-4.56;99.99
67868;SHT31;54672;46.096;14.470;2024-01-30T02:23:00;-4.53;99.99
67868;SHT31;54672;46.096;14.470;2024-01-30T02:25:34;-4.52;99.99
67868;SHT31;54672;46.096;14.470;2024-01-30T02:28:00;-4.49;99.99
67868;SHT31;54672;46.096;14.470;2024-01-30T02:30:25;-4.39;99.99
67868;SHT31;54672;46.096;14.470;2024-01-30T02:32:51;-4.42;99.99
67868;SHT31;54672;46.096;14.470;2024-01-30T02:35:17;-4.66;99.99
67868;SHT31;54672;46.096;14.470;2024-01-30T02:37:42;-4.83;99.99
67868;SHT31;54672;46.096;14.470;2024-01-30T02:40:07;-4.88;99.99
67868;SHT31;54672;46.096;14.470;2024-01-30T02:42:33;-4.81;99.99
67868;SHT31;54672;46.096;14.470;2024-01-30T02:44:58;-4.87;99.99
67868;SHT31;54672;46.096;14.470;2024-01-30T02:47:24;-4.91;99.99
67868;SHT31;54672;46.096;14.470;2024-01-30T02:49:52;-4.93;99.99
67868;SHT31;54672;46.096;14.470;2024-01-30T02:52:18;-4.98;99.99
67868;SHT31;54672;46.096;14.470;2024-01-30T02:54:44;-5.01;99.99
67868;SHT31;54672;46.096;14.470;2024-01-30T02:57:10;-5.03;99.99
67868;SHT31;54672;46.096;14.470;2024-01-30T02:59:35;-5.07;99.99
67868;SHT31;54672;46.096;14.470;2024-01-30T03:02:01;-5.08;99.99
67868;SHT31;54672;46.096;14.470;2024-01-30T03:04:27;-5.08;99.99
67868;SHT31;54672;46.096;14.470;2024-01-30T03:06:52;-5.11;99.99
67868;SHT31;54672;46.096;14.470;2024-01-30T03:09:18;-5.05;99.99
67868;SHT31;54672;46.096;14.470;2024-01-30T03:11:43;-5.09;99.99
67868;SHT31;54672;46.096;14.470;2024-01-30T03:14:09;-5.14;99.99
67868;SHT31;54672;46.096;14.470;2024-01-30T03:16:37;-5.08;99.99
67868;SHT31;54672;46.096;14.470;2024-01-30T03:19:03;-5.03;99.99
67868;SHT31;54672;46.096;14.470;2024-01-30T03:21:29;-5.09;99.99
67868;SHT31;54672;46.096;14.470;2024-01-30T03:23:54;-5.05;99.99
67868;SHT31;54672;46.096;14.470;2024-01-30T03:26:20;-5.04;99.99
67868;SHT31;54672;46.096;14.470;2024-01-30T03:28:45;-5.08;99.99
67868;SHT31;54672;46.096;14.470;2024-01-30T03:31:14;-5.11;99.99
67868;SHT31;54672;46.096;14.470;2024-01-30T03:33:39;-5.19;99.99
67868;SHT31;54672;46.096;14.470;2024-01-30T03:36:05;-5.14;99.99
67868;SHT31;54672;46.096;14.470;2024-01-30T03:38:31;-5.15;99.99
67868;SHT31;54672;46.096;14.470;2024-01-30T03:40:58;-5.19;99.99
67868;SHT31;54672;46.096;14.470;2024-01-30T03:43:24;-5.22;99.99
67868;SHT31;54672;46.096;14.470;2024-01-30T03:45:49;-5.24;99.99
67868;SHT31;54672;46.096;14.470;2024-01-30T03:48:15;-5.25;99.99
67868;SHT31;54672;46.096;14.470;2024-01-30T03:50:40;-5.25;99.99
67868;SHT31;54672;46.096;14.470;2024-01-30T03:53:06;-5.31;99.99
67868;SHT31;54672;46.096;14.470;2024-01-30T03:55:31;-5.45;99.99
67868;SHT31;54672;46.096;14.470;2024-01-30T03:57:57;-5.59;99.99
67868;SHT31;54672;46.096;14.470;2024-01-30T04:00:22;-5.60;99.99
67868;SHT31;54672;46.096;14.470;2024-01-30T04:02:47;-5.65;99.99
67868;SHT31;54672;46.096;14.470;2024-01-30T04:05:13;-5.65;99.99
67868;SHT31;54672;46.096;14.470;2024-01-30T04:07:38;-5.70;99.99
67868;SHT31;54672;46.096;14.470;2024-01-30T04:10:04;-5.63;99.99
67868;SHT31;54672;46.096;14.470;2024-01-30T04:12:33;-5.66;99.99
67868;SHT31;54672;46.096;14.470;2024-01-30T04:14:58;-5.67;99.99
67868;SHT31;54672;46.096;14.470;2024-01-30T04:17:24;-5.59;99.99
67868;SHT31;54672;46.096;14.470;2024-01-30T04:19:49;-5.60;99.99
67868;SHT31;54672;46.096;14.470;2024-01-30T04:22:15;-5.67;99.99
67868;SHT31;54672;46.096;14.470;2024-01-30T04:24:40;-5.66;99.99
67868;SHT31;54672;46.096;14.470;2024-01-30T04:27:06;-5.66;99.99
67868;SHT31;54672;46.096;14.470;2024-01-30T04:29:31;-5.65;99.99
67868;SHT31;54672;46.096;14.470;2024-01-30T04:31:58;-5.70;99.99
67868;SHT31;54672;46.096;14.470;2024-01-30T04:34:23;-5.70;99.99
67868;SHT31;54672;46.096;14.470;2024-01-30T04:36:48;-5.70;99.99
67868;SHT31;54672;46.096;14.470;2024-01-30T04:39:14;-5.60;99.99
67868;SHT31;54672;46.096;14.470;2024-01-30T04:41:39;-5.58;99.99
67868;SHT31;54672;46.096;14.470;2024-01-30T04:44:05;-5.60;99.99
67868;SHT31;54672;46.096;14.470;2024-01-30T04:46:31;-5.51;99.99
67868;SHT31;54672;46.096;14.470;2024-01-30T04:48:56;-5.60;99.99
67868;SHT31;54672;46.096;14.470;2024-01-30T04:51:22;-5.72;99.99
67868;SHT31;54672;46.096;14.470;2024-01-30T04:53:47;-5.73;99.99
67868;SHT31;54672;46.096;14.470;2024-01-30T04:56:12;-5.85;99.99
67868;SHT31;54672;46.096;14.470;2024-01-30T04:58:38;-5.90;99.99
67868;SHT31;54672;46.096;14.470;2024-01-30T05:01:03;-5.89;99.99
67868;SHT31;54672;46.096;14.470;2024-01-30T05:03:33;-5.96;99.99
67868;SHT31;54672;46.096;14.470;2024-01-30T05:05:59;-5.96;99.99
67868;SHT31;54672;46.096;14.470;2024-01-30T05:08:24;-5.93;99.99
67868;SHT31;54672;46.096;14.470;2024-01-30T05:10:49;-5.97;99.99
67868;SHT31;54672;46.096;14.470;2024-01-30T05:13:15;-6.00;99.99
67868;SHT31;54672;46.096;14.470;2024-01-30T05:15:40;-5.94;99.99
67868;SHT31;54672;46.096;14.470;2024-01-30T05:18:06;-5.93;99.99
67868;SHT31;54672;46.096;14.470;2024-01-30T05:20:31;-5.91;99.99
67868;SHT31;54672;46.096;14.470;2024-01-30T05:22:57;-5.89;99.99
67868;SHT31;54672;46.096;14.470;2024-01-30T05:25:22;-5.93;99.99
67868;SHT31;54672;46.096;14.470;2024-01-30T05:27:48;-5.91;99.99
67868;SHT31;54672;46.096;14.470;2024-01-30T05:30:15;-5.90;99.99
67868;SHT31;54672;46.096;14.470;2024-01-30T05:32:40;-5.89;99.99
67868;SHT31;54672;46.096;14.470;2024-01-30T05:35:06;-5.89;99.99
67868;SHT31;54672;46.096;14.470;2024-01-30T05:37:33;-5.89;99.99
67868;SHT31;54672;46.096;14.470;2024-01-30T05:39:58;-5.87;99.99
67868;SHT31;54672;46.096;14.470;2024-01-30T05:42:24;-5.91;99.99
67868;SHT31;54672;46.096;14.470;2024-01-30T05:44:50;-5.93;99.99
67868;SHT31;54672;46.096;14.470;2024-01-30T05:47:15;-5.94;99.99
67868;SHT31;54672;46.096;14.470;2024-01-30T05:49:41;-6.03;99.99
67868;SHT31;54672;46.096;14.470;2024-01-30T05:52:07;-6.07;99.99
67868;SHT31;54672;46.096;14.470;2024-01-30T05:54:32;-6.14;99.99
67868;SHT31;54672;46.096;14.470;2024-01-30T05:56:58;-6.10;99.99
67868;SHT31;54672;46.096;14.470;2024-01-30T05:59:23;-6.14;99.99
67868;SHT31;54672;46.096;14.470;2024-01-30T06:01:49;-6.20;99.99
67868;SHT31;54672;46.096;14.470;2024-01-30T06:04:14;-6.14;99.99
67868;SHT31;54672;46.096;14.470;2024-01-30T06:06:41;-6.17;99.99
67868;SHT31;54672;46.096;14.470;2024-01-30T06:09:06;-6.20;99.99
67868;SHT31;54672;46.096;14.470;2024-01-30T06:11:34;-6.21;99.99
67868;SHT31;54672;46.096;14.470;2024-01-30T06:14:00;-6.22;99.99
67868;SHT31;54672;46.096;14.470;2024-01-30T06:16:25;-6.10;99.99
67868;SHT31;54672;46.096;14.470;2024-01-30T06:18:55;-6.13;99.99
67868;SHT31;54672;46.096;14.470;2024-01-30T06:24:43;-6.32;99.99
67868;SHT31;54672;46.096;14.470;2024-01-30T06:27:10;-6.46;99.99
67868;SHT31;54672;46.096;14.470;2024-01-30T06:29:36;-6.45;99.99
67868;SHT31;54672;46.096;14.470;2024-01-30T06:32:01;-6.42;99.99
67868;SHT31;54672;46.096;14.470;2024-01-30T06:34:27;-6.38;99.99
67868;SHT31;54672;46.096;14.470;2024-01-30T06:36:52;-6.35;99.99
67868;SHT31;54672;46.096;14.470;2024-01-30T06:39:17;-6.31;99.99
67868;SHT31;54672;46.096;14.470;2024-01-30T06:41:43;-6.29;99.99
67868;SHT31;54672;46.096;14.470;2024-01-30T06:44:09;-6.21;99.99
67868;SHT31;54672;46.096;14.470;2024-01-30T06:46:35;-5.98;99.99
67868;SHT31;54672;46.096;14.470;2024-01-30T06:49:00;-5.69;99.99
67868;SHT31;54672;46.096;14.470;2024-01-30T06:51:26;-5.70;99.54
67868;SHT31;54672;46.096;14.470;2024-01-30T06:53:52;-5.38;98.98
67868;SHT31;54672;46.096;14.470;2024-01-30T06:56:17;-4.69;98.37
67868;SHT31;54672;46.096;14.470;2024-01-30T06:58:49;-4.12;97.17
67868;SHT31;54672;46.096;14.470;2024-01-30T07:01:15;-4.08;95.38
67868;SHT31;54672;46.096;14.470;2024-01-30T07:03:41;-3.95;95.33
67868;SHT31;54672;46.096;14.470;2024-01-30T07:06:08;-3.84;93.86
67868;SHT31;54672;46.096;14.470;2024-01-30T07:08:33;-3.91;91.58
67868;SHT31;54672;46.096;14.470;2024-01-30T07:10:58;-3.29;92.12
67868;SHT31;54672;46.096;14.470;2024-01-30T07:13:24;-2.88;91.18
67868;SHT31;54672;46.096;14.470;2024-01-30T07:15:50;-2.56;89.82
67868;SHT31;54672;46.096;14.470;2024-01-30T07:18:15;-2.43;86.65
67868;SHT31;54672;46.096;14.470;2024-01-30T07:20:41;-2.43;85.70
67868;SHT31;54672;46.096;14.470;2024-01-30T07:23:15;-2.13;84.92
67868;SHT31;54672;46.096;14.470;2024-01-30T07:25:46;-3.12;86.39
67868;SHT31;54672;46.096;14.470;2024-01-30T07:28:13;-3.33;89.42
67868;SHT31;54672;46.096;14.470;2024-01-30T07:30:41;-3.05;88.72
67868;SHT31;54672;46.096;14.470;2024-01-30T07:33:07;-3.05;89.12
67868;SHT31;54672;46.096;14.470;2024-01-30T07:35:34;-3.49;91.02
67868;SHT31;54672;46.096;14.470;2024-01-30T07:37:59;-3.59;91.80
67868;SHT31;54672;46.096;14.470;2024-01-30T07:40:25;-3.60;92.28
67868;SHT31;54672;46.096;14.470;2024-01-30T07:42:50;-3.50;91.79
67868;SHT31;54672;46.096;14.470;2024-01-30T07:45:16;-3.49;91.20
67868;SHT31;54672;46.096;14.470;2024-01-30T07:47:42;-3.36;90.59
67868;SHT31;54672;46.096;14.470;2024-01-30T07:50:08;-3.35;90.08
67868;SHT31;54672;46.096;14.470;2024-01-30T07:52:33;-3.31;90.73
67868;SHT31;54672;46.096;14.470;2024-01-30T07:54:59;-3.39;91.14
67868;SHT31;54672;46.096;14.470;2024-01-30T07:57:24;-3.52;91.18
67868;SHT31;54672;46.096;14.470;2024-01-30T07:59:50;-3.15;90.66
67868;SHT31;54672;46.096;14.470;2024-01-30T08:02:15;-3.03;90.69
67868;SHT31;54672;46.096;14.470;2024-01-30T08:04:41;-2.75;90.77
67868;SHT31;54672;46.096;14.470;2024-01-30T08:07:06;-2.75;89.39
67868;SHT31;54672;46.096;14.470;2024-01-30T08:09:32;-2.70;89.68
67868;SHT31;54672;46.096;14.470;2024-01-30T08:11:57;-2.20;89.11
67868;SHT31;54672;46.096;14.470;2024-01-30T08:14:23;-2.41;89.29
67868;SHT31;54672;46.096;14.470;2024-01-30T08:16:48;-2.28;89.03
67868;SHT31;54672;46.096;14.470;2024-01-30T08:19:14;-0.93;86.85
67868;SHT31;54672;46.096;14.470;2024-01-30T08:21:40;-0.04;83.10
67868;SHT31;54672;46.096;14.470;2024-01-30T08:24:06;1.07;79.85
67868;SHT31;54672;46.096;14.470;2024-01-30T08:26:32;0.92;76.60
67868;SHT31;54672;46.096;14.470;2024-01-30T08:28:59;1.62;75.55
67868;SHT31;54672;46.096;14.470;2024-01-30T08:31:24;2.21;74.02
67868;SHT31;54672;46.096;14.470;2024-01-30T08:33:50;2.06;72.50
67868;SHT31;54672;46.096;14.470;2024-01-30T08:36:16;2.47;71.31
67868;SHT31;54672;46.096;14.470;2024-01-30T08:38:41;2.97;70.76
67868;SHT31;54672;46.096;14.470;2024-01-30T08:41:07;1.85;72.59
67868;SHT31;54672;46.096;14.470;2024-01-30T08:43:33;-0.45;78.45
67868;SHT31;54672;46.096;14.470;2024-01-30T08:46:02;-1.75;83.71
67868;SHT31;54672;46.096;14.470;2024-01-30T08:48:28;-2.40;87.68
67868;SHT31;54672;46.096;14.470;2024-01-30T08:50:54;-2.51;89.19
67868;SHT31;54672;46.096;14.470;2024-01-30T08:53:20;-2.58;89.42
67868;SHT31;54672;46.096;14.470;2024-01-30T08:55:45;-2.36;88.95
67868;SHT31;54672;46.096;14.470;2024-01-30T08:58:11;-2.03;88.69
67868;SHT31;54672;46.096;14.470;2024-01-30T09:00:36;-1.83;88.28
67868;SHT31;54672;46.096;14.470;2024-01-30T09:03:02;-1.61;87.88
67868;SHT31;54672;46.096;14.470;2024-01-30T09:05:28;-1.54;87.52
67868;SHT31;54672;46.096;14.470;2024-01-30T09:07:53;-1.37;87.58
67868;SHT31;54672;46.096;14.470;2024-01-30T09:10:19;-1.24;87.25
67868;SHT31;54672;46.096;14.470;2024-01-30T09:12:44;-1.09;86.44
67868;SHT31;54672;46.096;14.470;2024-01-30T09:15:10;-1.01;86.24
67868;SHT31;54672;46.096;14.470;2024-01-30T09:17:35;-1.11;86.64
67868;SHT31;54672;46.096;14.470;2024-01-30T09:20:01;-0.85;86.60
67868;SHT31;54672;46.096;14.470;2024-01-30T09:22:26;-0.70;85.67
67868;SHT31;54672;46.096;14.470;2024-01-30T09:24:52;-0.44;85.58
67868;SHT31;54672;46.096;14.470;2024-01-30T09:27:17;-0.41;84.53
67868;SHT31;54672;46.096;14.470;2024-01-30T09:29:42;-0.39;84.50
67868;SHT31;54672;46.096;14.470;2024-01-30T09:32:08;-0.49;85.17
67868;SHT31;54672;46.096;14.470;2024-01-30T09:34:34;-0.42;85.29
67868;SHT31;54672;46.096;14.470;2024-01-30T09:37:00;-0.13;85.45
67868;SHT31;54672;46.096;14.470;2024-01-30T09:39:25;-0.38;85.30
67868;SHT31;54672;46.096;14.470;2024-01-30T09:42:11;-0.27;85.84
67868;SHT31;54672;46.096;14.470;2024-01-30T09:44:43;-0.27;85.58
67868;SHT31;54672;46.096;14.470;2024-01-30T09:47:09;-0.31;85.92
67868;SHT31;54672;46.096;14.470;2024-01-30T09:49:35;-0.55;86.50
67868;SHT31;54672;46.096;14.470;2024-01-30T09:52:02;-0.31;86.68
67868;SHT31;54672;46.096;14.470;2024-01-30T09:54:33;-0.06;86.03
67868;SHT31;54672;46.096;14.470;2024-01-30T09:56:59;0.04;85.59
67868;SHT31;54672;46.096;14.470;2024-01-30T09:59:24;0.09;85.98
67868;SHT31;54672;46.096;14.470;2024-01-30T10:01:50;0.25;86.09
67868;SHT31;54672;46.096;14.470;2024-01-30T10:04:16;0.25;86.03
67868;SHT31;54672;46.096;14.470;2024-01-30T10:06:42;0.24;86.46
67868;SHT31;54672;46.096;14.470;2024-01-30T10:09:07;0.36;86.38
67868;SHT31;54672;46.096;14.470;2024-01-30T10:11:36;0.41;85.80
67868;SHT31;54672;46.096;14.470;2024-01-30T10:14:01;0.48;86.03
67868;SHT31;54672;46.096;14.470;2024-01-30T10:16:27;0.62;85.42
67868;SHT31;54672;46.096;14.470;2024-01-30T10:18:52;0.72;85.19
67868;SHT31;54672;46.096;14.470;2024-01-30T10:21:18;0.68;85.33
67868;SHT31;54672;46.096;14.470;2024-01-30T10:23:44;0.79;85.49
67868;SHT31;54672;46.096;14.470;2024-01-30T10:26:12;0.92;84.71
67868;SHT31;54672;46.096;14.470;2024-01-30T10:28:38;0.93;84.95
67868;SHT31;54672;46.096;14.470;2024-01-30T10:31:03;1.06;84.19
67868;SHT31;54672;46.096;14.470;2024-01-30T10:33:30;0.96;84.96
67868;SHT31;54672;46.096;14.470;2024-01-30T10:36:03;1.22;83.87
67868;SHT31;54672;46.096;14.470;2024-01-30T10:38:33;1.34;84.75
67868;SHT31;54672;46.096;14.470;2024-01-30T10:41:00;1.33;84.08
67868;SHT31;54672;46.096;14.470;2024-01-30T10:43:35;1.41;84.45
67868;SHT31;54672;46.096;14.470;2024-01-30T10:46:18;1.43;83.98
67868;SHT31;54672;46.096;14.470;2024-01-30T10:48:44;1.55;84.04
67868;SHT31;54672;46.096;14.470;2024-01-30T10:51:14;1.72;83.97
67868;SHT31;54672;46.096;14.470;2024-01-30T10:53:39;2.01;82.84
67868;SHT31;54672;46.096;14.470;2024-01-30T10:56:06;2.03;82.48
67868;SHT31;54672;46.096;14.470;2024-01-30T10:58:33;2.11;82.42
67868;SHT31;54672;46.096;14.470;2024-01-30T11:00:59;2.13;82.63
67868;SHT31;54672;46.096;14.470;2024-01-30T11:03:25;2.23;81.97
67868;SHT31;54672;46.096;14.470;2024-01-30T11:05:52;2.25;82.06
67868;SHT31;54672;46.096;14.470;2024-01-30T11:08:24;2.46;82.15
67868;SHT31;54672;46.096;14.470;2024-01-30T11:10:57;2.64;81.31
67868;SHT31;54672;46.096;14.470;2024-01-30T11:13:29;2.73;80.98
67868;SHT31;54672;46.096;14.470;2024-01-30T11:15:55;2.80;80.32
67868;SHT31;54672;46.096;14.470;2024-01-30T11:18:28;2.88;80.23
67868;SHT31;54672;46.096;14.470;2024-01-30T11:20:56;2.91;80.25
67868;SHT31;54672;46.096;14.470;2024-01-30T11:23:22;3.01;80.36
67868;SHT31;54672;46.096;14.470;2024-01-30T11:25:48;3.09;79.65
67868;SHT31;54672;46.096;14.470;2024-01-30T11:28:14;3.28;79.07
67868;SHT31;54672;46.096;14.470;2024-01-30T11:30:44;3.19;78.97
67868;SHT31;54672;46.096;14.470;2024-01-30T11:33:14;3.33;79.27
67868;SHT31;54672;46.096;14.470;2024-01-30T11:35:44;3.38;78.82
67868;SHT31;54672;46.096;14.470;2024-01-30T11:38:14;3.55;78.25
67868;SHT31;54672;46.096;14.470;2024-01-30T11:40:40;3.53;77.57
67868;SHT31;54672;46.096;14.470;2024-01-30T11:43:07;3.63;77.80
67868;SHT31;54672;46.096;14.470;2024-01-30T11:45:34;3.67;77.61
67868;SHT31;54672;46.096;14.470;2024-01-30T11:48:00;3.80;77.69
67868;SHT31;54672;46.096;14.470;2024-01-30T11:50:38;3.95;76.68
67868;SHT31;54672;46.096;14.470;2024-01-30T11:53:04;4.08;75.78
67868;SHT31;54672;46.096;14.470;2024-01-30T11:55:31;4.21;74.85
67868;SHT31;54672;46.096;14.470;2024-01-30T11:57:57;4.24;73.68
67868;SHT31;54672;46.096;14.470;2024-01-30T12:00:23;4.21;73.71
67868;SHT31;54672;46.096;14.470;2024-01-30T12:02:53;4.25;72.44
67868;SHT31;54672;46.096;14.470;2024-01-30T12:05:24;4.24;70.99
67868;SHT31;54672;46.096;14.470;2024-01-30T12:07:50;4.41;70.33
67868;SHT31;54672;46.096;14.470;2024-01-30T12:10:16;4.58;69.10
67868;SHT31;54672;46.096;14.470;2024-01-30T12:12:45;4.71;68.37
67868;SHT31;54672;46.096;14.470;2024-01-30T12:15:12;4.92;68.37
67868;SHT31;54672;46.096;14.470;2024-01-30T12:17:38;5.10;69.26
67868;SHT31;54672;46.096;14.470;2024-01-30T12:25:10;5.23;68.29
67868;SHT31;54672;46.096;14.470;2024-01-30T12:27:36;5.19;68.85
67868;SHT31;54672;46.096;14.470;2024-01-30T12:30:05;5.23;67.99
67868;SHT31;54672;46.096;14.470;2024-01-30T12:32:31;5.26;67.63
67868;SHT31;54672;46.096;14.470;2024-01-30T12:34:57;5.31;66.78
67868;SHT31;54672;46.096;14.470;2024-01-30T12:37:22;5.44;65.04
67868;SHT31;54672;46.096;14.470;2024-01-30T12:39:51;5.38;66.15
67868;SHT31;54672;46.096;14.470;2024-01-30T12:42:18;5.40;65.54
67868;SHT31;54672;46.096;14.470;2024-01-30T12:44:44;5.51;65.18
67868;SHT31;54672;46.096;14.470;2024-01-30T12:47:09;5.51;65.32
67868;SHT31;54672;46.096;14.470;2024-01-30T12:49:35;5.52;65.86
67868;SHT31;54672;46.096;14.470;2024-01-30T12:52:01;5.47;66.05
67868;SHT31;54672;46.096;14.470;2024-01-30T12:54:26;5.48;65.66
67868;SHT31;54672;46.096;14.470;2024-01-30T12:56:52;5.51;66.96
67868;SHT31;54672;46.096;14.470;2024-01-30T12:59:17;5.50;67.48
67868;SHT31;54672;46.096;14.470;2024-01-30T13:01:43;5.44;68.22
67868;SHT31;54672;46.096;14.470;2024-01-30T13:04:08;5.44;68.55
67868;SHT31;54672;46.096;14.470;2024-01-30T13:06:34;5.38;70.09
67868;SHT31;54672;46.096;14.470;2024-01-30T13:08:59;5.55;70.42
67868;SHT31;54672;46.096;14.470;2024-01-30T13:11:25;5.65;69.94
67868;SHT31;54672;46.096;14.470;2024-01-30T13:13:51;5.65;69.98
67868;SHT31;54672;46.096;14.470;2024-01-30T13:16:16;5.68;69.79
67868;SHT31;54672;46.096;14.470;2024-01-30T13:18:42;5.69;70.13
67868;SHT31;54672;46.096;14.470;2024-01-30T13:21:07;5.74;70.42
67868;SHT31;54672;46.096;14.470;2024-01-30T13:23:32;5.78;70.46
67868;SHT31;54672;46.096;14.470;2024-01-30T13:25:58;5.82;70.35
67868;SHT31;54672;46.096;14.470;2024-01-30T13:28:24;5.65;70.79
67868;SHT31;54672;46.096;14.470;2024-01-30T13:30:51;5.65;70.89
67868;SHT31;54672;46.096;14.470;2024-01-30T13:33:17;5.61;71.03
67868;SHT31;54672;46.096;14.470;2024-01-30T13:35:42;5.58;71.49
67868;SHT31;54672;46.096;14.470;2024-01-30T13:38:08;5.61;71.33
67868;SHT31;54672;46.096;14.470;2024-01-30T13:40:33;5.68;71.37
67868;SHT31;54672;46.096;14.470;2024-01-30T13:42:59;5.72;70.66
67868;SHT31;54672;46.096;14.470;2024-01-30T13:45:24;5.71;70.32
67868;SHT31;54672;46.096;14.470;2024-01-30T13:47:50;5.84;70.15
67868;SHT31;54672;46.096;14.470;2024-01-30T13:50:15;5.78;67.99
67868;SHT31;54672;46.096;14.470;2024-01-30T13:52:42;5.88;67.58
67868;SHT31;54672;46.096;14.470;2024-01-30T13:55:09;5.96;68.11
67868;SHT31;54672;46.096;14.470;2024-01-30T13:57:35;6.03;69.32
67868;SHT31;54672;46.096;14.470;2024-01-30T14:00:02;5.96;69.42
67868;SHT31;54672;46.096;14.470;2024-01-30T14:02:30;5.96;68.96
67868;SHT31;54672;46.096;14.470;2024-01-30T14:04:56;5.99;69.29
67868;SHT31;54672;46.096;14.470;2024-01-30T14:07:22;5.88;69.52
67868;SHT31;54672;46.096;14.470;2024-01-30T14:09:48;5.96;69.91
67868;SHT31;54672;46.096;14.470;2024-01-30T14:12:13;5.95;69.78
67868;SHT31;54672;46.096;14.470;2024-01-30T14:14:39;5.98;70.56
67868;SHT31;54672;46.096;14.470;2024-01-30T14:17:05;5.95;70.71
67868;SHT31;54672;46.096;14.470;2024-01-30T14:19:35;5.95;70.10
67868;SHT31;54672;46.096;14.470;2024-01-30T14:22:03;5.88;69.93
67868;SHT31;54672;46.096;14.470;2024-01-30T14:24:29;5.79;70.81
67868;SHT31;54672;46.096;14.470;2024-01-30T14:26:54;5.78;71.07
67868;SHT31;54672;46.096;14.470;2024-01-30T14:29:20;5.72;71.65
67868;SHT31;54672;46.096;14.470;2024-01-30T14:31:45;5.66;71.90
67868;SHT31;54672;46.096;14.470;2024-01-30T14:34:11;5.51;72.68
67868;SHT31;54672;46.096;14.470;2024-01-30T14:36:37;5.43;72.86
67868;SHT31;54672;46.096;14.470;2024-01-30T14:39:03;5.31;73.72
67868;SHT31;54672;46.096;14.470;2024-01-30T14:41:29;5.24;73.87
67868;SHT31;54672;46.096;14.470;2024-01-30T14:43:54;5.10;74.33
67868;SHT31;54672;46.096;14.470;2024-01-30T14:46:20;4.94;75.03
67868;SHT31;54672;46.096;14.470;2024-01-30T14:48:47;4.79;75.39
67868;SHT31;54672;46.096;14.470;2024-01-30T14:51:12;4.69;75.60
67868;SHT31;54672;46.096;14.470;2024-01-30T14:53:38;4.55;76.01
67868;SHT31;54672;46.096;14.470;2024-01-30T14:56:04;4.41;76.34
67868;SHT31;54672;46.096;14.470;2024-01-30T14:58:31;4.27;76.91
67868;SHT31;54672;46.096;14.470;2024-01-30T15:00:56;4.18;77.43
67868;SHT31;54672;46.096;14.470;2024-01-30T15:03:22;4.13;77.67
67868;SHT31;54672;46.096;14.470;2024-01-30T15:05:47;4.04;77.90
67868;SHT31;54672;46.096;14.470;2024-01-30T15:08:13;3.93;78.00
67868;SHT31;54672;46.096;14.470;2024-01-30T15:10:38;3.83;78.19
67868;SHT31;54672;46.096;14.470;2024-01-30T15:13:04;3.76;78.54
67868;SHT31;54672;46.096;14.470;2024-01-30T15:15:29;3.72;78.92
67868;SHT31;54672;46.096;14.470;2024-01-30T15:17:56;3.62;79.25
67868;SHT31;54672;46.096;14.470;2024-01-30T15:20:22;3.53;79.32
67868;SHT31;54672;46.096;14.470;2024-01-30T15:22:47;3.45;79.32
67868;SHT31;54672;46.096;14.470;2024-01-30T15:25:13;3.42;79.45
67868;SHT31;54672;46.096;14.470;2024-01-30T15:27:39;3.43;79.74
67868;SHT31;54672;46.096;14.470;2024-01-30T15:30:05;3.43;79.23